createdAt,value
2023-06-10T00:00:53.959Z,42.30
2023-06-10T00:01:54.975Z,42.33
2023-06-10T00:02:55.058Z,42.30
2023-06-10T00:03:54.270Z,42.45
2023-06-10T00:04:54.992Z,42.40
2023-06-10T00:05:53.950Z,42.34
2023-06-10T00:06:54.943Z,42.26
2023-06-10T00:07:53.917Z,42.35
2023-06-10T00:08:54.913Z,42.29
2023-06-10T00:09:54.917Z,42.31
2023-06-10T00:10:54.934Z,42.30
2023-06-10T00:11:54.889Z,42.39
2023-06-10T00:12:54.896Z,42.31
2023-06-10T00:13:54.879Z,42.22
2023-06-10T00:14:54.874Z,42.18
2023-06-10T00:15:53.908Z,42.32
2023-06-10T00:16:54.888Z,42.30
2023-06-10T00:17:54.932Z,42.40
2023-06-10T00:18:54.890Z,42.40
2023-06-10T00:19:54.856Z,42.36
2023-06-10T00:20:54.852Z,42.32
2023-06-10T00:21:57.339Z,42.26
2023-06-10T00:22:54.916Z,42.36
2023-06-10T00:23:54.969Z,42.23
2023-06-10T00:24:54.900Z,42.30
2023-06-10T00:25:54.940Z,42.32
2023-06-10T00:26:54.893Z,42.30
2023-06-10T00:27:54.873Z,42.23
2023-06-10T00:28:53.852Z,42.28
2023-06-10T00:29:53.855Z,42.31
2023-06-10T00:30:53.844Z,42.19
2023-06-10T00:31:54.881Z,42.26
2023-06-10T00:32:54.920Z,42.23
2023-06-10T00:33:54.851Z,42.32
2023-06-10T00:34:54.824Z,42.23
2023-06-10T00:35:53.817Z,42.22
2023-06-10T00:36:54.808Z,42.24
2023-06-10T00:37:54.827Z,42.24
2023-06-10T00:38:54.803Z,42.25
2023-06-10T00:39:54.793Z,42.34
2023-06-10T00:40:54.801Z,42.28
2023-06-10T00:41:54.772Z,42.25
2023-06-10T00:42:54.775Z,42.30
2023-06-10T00:43:53.754Z,42.34
2023-06-10T00:44:54.821Z,42.39
2023-06-10T00:45:53.752Z,42.32
2023-06-10T00:46:54.772Z,42.26
2023-06-10T00:47:54.834Z,42.42
2023-06-10T00:48:53.768Z,42.35
2023-06-10T00:49:54.793Z,42.36
2023-06-10T00:50:54.789Z,42.39
2023-06-10T00:51:54.811Z,42.28
2023-06-10T00:52:55.801Z,42.32
2023-06-10T00:53:53.967Z,42.29
2023-06-10T00:54:54.966Z,42.40
2023-06-10T00:55:55.044Z,42.26
2023-06-10T00:56:55.093Z,42.38
2023-06-10T00:57:55.096Z,42.26
2023-06-10T00:58:55.203Z,42.27
2023-06-10T00:59:55.225Z,42.37
2023-06-10T01:00:54.268Z,42.37
2023-06-10T01:01:55.296Z,42.21
2023-06-10T01:02:54.426Z,42.23
2023-06-10T01:03:54.402Z,42.30
2023-06-10T01:04:54.434Z,42.23
2023-06-10T01:05:55.835Z,42.29
2023-06-10T01:06:54.611Z,42.35
2023-06-10T01:07:55.543Z,42.34
2023-06-10T01:08:55.599Z,42.31
2023-06-10T01:09:55.669Z,42.36
2023-06-10T01:10:55.662Z,42.30
2023-06-10T01:11:55.762Z,42.34
2023-06-10T01:12:55.794Z,42.32
2023-06-10T01:13:55.795Z,42.35
2023-06-10T01:14:55.919Z,42.31
2023-06-10T01:15:55.904Z,42.23
2023-06-10T01:16:56.046Z,42.37
2023-06-10T01:17:56.061Z,42.36
2023-06-10T01:18:56.091Z,42.30
2023-06-10T01:19:55.106Z,42.36
2023-06-10T01:20:56.127Z,42.31
2023-06-10T01:21:55.182Z,42.36
2023-06-10T01:22:56.244Z,42.27
2023-06-10T01:23:55.502Z,42.28
2023-06-10T01:24:56.362Z,42.30
2023-06-10T01:25:56.383Z,42.36
2023-06-10T01:26:56.416Z,42.26
2023-06-10T01:27:55.494Z,42.40
2023-06-10T01:28:56.517Z,42.39
2023-06-10T01:29:56.576Z,42.34
2023-06-10T01:30:56.669Z,42.31
2023-06-10T01:31:56.715Z,42.27
2023-06-10T01:32:55.722Z,42.30
2023-06-10T01:33:56.727Z,42.42
2023-06-10T01:34:55.741Z,42.34
2023-06-10T01:35:55.825Z,42.28
2023-06-10T01:36:56.840Z,42.33
2023-06-10T01:37:55.847Z,42.38
2023-06-10T01:38:56.954Z,42.32
2023-06-10T01:39:55.983Z,42.33
2023-06-10T01:40:57.007Z,42.42
2023-06-10T01:41:56.045Z,42.42
2023-06-10T01:42:56.100Z,42.37
2023-06-10T01:43:57.157Z,42.46
2023-06-10T01:44:57.180Z,42.42
2023-06-10T01:45:57.230Z,42.42
2023-06-10T01:46:57.411Z,42.39
2023-06-10T01:47:57.390Z,42.41
2023-06-10T01:48:57.353Z,42.35
2023-06-10T01:49:57.431Z,42.24
2023-06-10T01:50:57.463Z,42.35
2023-06-10T01:51:56.470Z,42.34
2023-06-10T01:52:57.577Z,42.29
2023-06-10T01:53:57.546Z,42.30
2023-06-10T01:54:57.593Z,42.36
2023-06-10T01:55:57.663Z,42.39
2023-06-10T01:56:57.679Z,42.31
2023-06-10T01:57:57.698Z,42.29
2023-06-10T01:58:57.717Z,42.40
2023-06-10T01:59:57.776Z,42.39
2023-06-10T02:00:56.930Z,42.37
2023-06-10T02:01:57.829Z,42.44
2023-06-10T02:02:57.932Z,42.37
2023-06-10T02:03:58.033Z,42.33
2023-06-10T02:04:57.930Z,42.36
2023-06-10T02:05:57.979Z,42.31
2023-06-10T02:06:58.068Z,42.32
2023-06-10T02:07:58.040Z,42.37
2023-06-10T02:08:58.179Z,42.41
2023-06-10T02:09:58.182Z,42.31
2023-06-10T02:10:58.206Z,42.33
2023-06-10T02:11:58.256Z,42.32
2023-06-10T02:12:57.279Z,42.36
2023-06-10T02:13:58.294Z,42.29
2023-06-10T02:14:58.342Z,42.33
2023-06-10T02:15:57.446Z,42.29
2023-06-10T02:16:57.524Z,42.32
2023-06-10T02:17:58.475Z,42.33
2023-06-10T02:18:58.601Z,42.35
2023-06-10T02:19:58.584Z,42.33
2023-06-10T02:20:58.589Z,42.27
2023-06-10T02:21:58.699Z,42.23
2023-06-10T02:22:58.668Z,42.35
2023-06-10T02:23:58.735Z,42.31
2023-06-10T02:24:58.786Z,42.27
2023-06-10T02:25:58.798Z,42.28
2023-06-10T02:26:58.822Z,42.27
2023-06-10T02:27:58.831Z,42.29
2023-06-10T02:28:58.905Z,42.25
2023-06-10T02:29:57.900Z,42.30
2023-06-10T02:30:58.927Z,42.25
2023-06-10T02:31:58.986Z,42.32
2023-06-10T02:32:59.009Z,42.36
2023-06-10T02:33:58.994Z,42.30
2023-06-10T02:34:58.089Z,42.30
2023-06-10T02:35:59.076Z,42.41
2023-06-10T02:36:59.144Z,42.38
2023-06-10T02:37:59.213Z,42.32
2023-06-10T02:38:59.213Z,42.28
2023-06-10T02:39:59.245Z,42.37
2023-06-10T02:40:59.269Z,42.42
2023-06-10T02:41:59.325Z,42.38
2023-06-10T02:42:58.386Z,42.32
2023-06-10T02:43:59.375Z,42.39
2023-06-10T02:44:59.420Z,42.40
2023-06-10T02:45:59.505Z,42.41
2023-06-10T02:46:59.473Z,42.39
2023-06-10T02:47:59.543Z,42.40
2023-06-10T02:48:59.493Z,42.29
2023-06-10T02:49:59.577Z,42.38
2023-06-10T02:50:59.584Z,42.37
2023-06-10T02:51:58.596Z,42.39
2023-06-10T02:52:59.622Z,42.34
2023-06-10T02:53:59.643Z,42.37
2023-06-10T02:54:59.781Z,42.29
2023-06-10T02:55:59.711Z,42.36
2023-06-10T02:56:59.766Z,42.34
2023-06-10T02:57:59.749Z,42.44
2023-06-10T02:58:59.784Z,42.44
2023-06-10T02:59:59.803Z,42.43
2023-06-10T03:00:59.868Z,42.45
2023-06-10T03:01:59.914Z,42.44
2023-06-10T03:02:59.882Z,42.37
2023-06-10T03:03:58.908Z,42.30
2023-06-10T03:05:00.048Z,42.39
2023-06-10T03:05:59.992Z,42.41
2023-06-10T03:07:00.014Z,42.41
2023-06-10T03:08:00.045Z,42.35
2023-06-10T03:09:00.057Z,42.36
2023-06-10T03:10:00.139Z,42.37
2023-06-10T03:11:00.089Z,42.32
2023-06-10T03:12:00.150Z,42.39
2023-06-10T03:13:00.129Z,42.42
2023-06-10T03:13:59.156Z,42.43
2023-06-10T03:15:00.188Z,42.42
2023-06-10T03:16:00.280Z,42.47
2023-06-10T03:17:00.204Z,42.39
2023-06-10T03:18:00.237Z,42.40
2023-06-10T03:18:59.315Z,42.39
2023-06-10T03:20:00.308Z,42.41
2023-06-10T03:21:00.351Z,42.39
2023-06-10T03:22:00.301Z,42.36
2023-06-10T03:23:00.355Z,42.35
2023-06-10T03:23:59.417Z,42.33
2023-06-10T03:25:00.423Z,42.41
2023-06-10T03:26:00.447Z,42.32
2023-06-10T03:27:00.425Z,42.41
2023-06-10T03:28:00.488Z,42.39
2023-06-10T03:28:59.455Z,42.35
2023-06-10T03:29:59.472Z,42.39
2023-06-10T03:30:59.551Z,42.31
2023-06-10T03:31:59.497Z,42.37
2023-06-10T03:32:59.658Z,42.36
2023-06-10T03:34:00.576Z,42.42
2023-06-10T03:35:00.574Z,42.46
2023-06-10T03:36:00.602Z,42.45
2023-06-10T03:37:00.638Z,42.37
2023-06-10T03:38:00.592Z,42.39
2023-06-10T03:39:00.650Z,42.32
2023-06-10T03:39:59.633Z,42.36
2023-06-10T03:41:00.713Z,42.45
2023-06-10T03:41:59.723Z,42.45
2023-06-10T03:43:00.662Z,42.34
2023-06-10T03:43:59.691Z,42.31
2023-06-10T03:45:00.772Z,42.38
2023-06-10T03:46:00.737Z,42.37
2023-06-10T03:46:59.745Z,42.33
2023-06-10T03:47:59.838Z,42.24
2023-06-10T03:48:59.778Z,42.36
2023-06-10T03:50:00.761Z,42.35
2023-06-10T03:51:00.780Z,42.32
2023-06-10T03:52:00.803Z,42.38
2023-06-10T03:52:59.827Z,42.38
2023-06-10T03:54:00.820Z,42.40
2023-06-10T03:55:00.945Z,42.36
2023-06-10T03:55:59.865Z,42.36
2023-06-10T03:56:59.872Z,42.39
2023-06-10T03:57:59.879Z,42.37
2023-06-10T03:59:00.974Z,42.39
2023-06-10T04:00:00.938Z,42.36
2023-06-10T04:00:59.940Z,42.43
2023-06-10T04:01:59.992Z,42.40
2023-06-10T04:03:01.017Z,42.40
2023-06-10T04:04:00.937Z,42.44
2023-06-10T04:04:59.964Z,42.35
2023-06-10T04:06:01.037Z,42.40
2023-06-10T04:07:01.003Z,42.34
2023-06-10T04:08:01.021Z,42.34
2023-06-10T04:09:01.056Z,42.45
2023-06-10T04:10:01.083Z,42.36
2023-06-10T04:11:00.137Z,42.45
2023-06-10T04:12:01.118Z,42.36
2023-06-10T04:13:00.140Z,42.38
2023-06-10T04:14:01.099Z,42.48
2023-06-10T04:15:01.117Z,42.41
2023-06-10T04:16:01.123Z,42.35
2023-06-10T04:17:01.163Z,42.38
2023-06-10T04:18:01.232Z,42.34
2023-06-10T04:19:01.186Z,42.29
2023-06-10T04:20:01.246Z,42.32
2023-06-10T04:21:00.199Z,42.40
2023-06-10T04:22:00.243Z,42.36
2023-06-10T04:23:01.238Z,42.38
2023-06-10T04:24:00.271Z,42.36
2023-06-10T04:25:01.259Z,42.31
2023-06-10T04:26:00.250Z,42.34
2023-06-10T04:27:00.300Z,42.26
2023-06-10T04:28:01.326Z,42.20
2023-06-10T04:29:01.382Z,42.23
2023-06-10T04:30:01.360Z,42.26
2023-06-10T04:31:01.389Z,42.20
2023-06-10T04:32:01.434Z,42.14
2023-06-10T04:33:01.454Z,42.16
2023-06-10T04:34:01.455Z,42.20
2023-06-10T04:35:00.563Z,42.17
2023-06-10T04:36:01.555Z,42.16
2023-06-10T04:37:01.545Z,42.13
2023-06-10T04:38:00.584Z,42.21
2023-06-10T04:39:01.612Z,42.21
2023-06-10T04:40:00.678Z,42.14
2023-06-10T04:41:01.687Z,42.25
2023-06-10T04:42:01.713Z,42.16
2023-06-10T04:43:00.708Z,42.21
2023-06-10T04:44:01.731Z,42.20
2023-06-10T04:45:01.769Z,42.20
2023-06-10T04:46:00.844Z,42.16
2023-06-10T04:47:01.860Z,42.18
2023-06-10T04:48:01.918Z,42.14
2023-06-10T04:49:01.842Z,42.17
2023-06-10T04:50:01.923Z,42.05
2023-06-10T04:51:00.932Z,42.20
2023-06-10T04:52:01.955Z,42.17
2023-06-10T04:53:02.049Z,42.18
2023-06-10T04:54:02.020Z,42.16
2023-06-10T04:55:02.076Z,42.09
2023-06-10T04:56:02.124Z,42.12
2023-06-10T04:57:01.128Z,42.14
2023-06-10T04:58:02.178Z,42.02
2023-06-10T04:59:02.224Z,42.04
2023-06-10T05:00:01.325Z,41.98
2023-06-10T05:01:01.302Z,42.02
2023-06-10T05:02:02.355Z,41.97
2023-06-10T05:03:02.606Z,42.04
2023-06-10T05:04:02.456Z,41.90
2023-06-10T05:05:02.489Z,41.85
2023-06-10T05:06:01.530Z,41.87
2023-06-10T05:07:02.575Z,41.95
2023-06-10T05:08:02.624Z,41.99
2023-06-10T05:09:02.668Z,41.86
2023-06-10T05:10:01.710Z,41.98
2023-06-10T05:11:02.832Z,42.03
2023-06-10T05:12:02.805Z,41.93
2023-06-10T05:13:02.857Z,41.95
2023-06-10T05:14:02.917Z,41.90
2023-06-10T05:15:02.937Z,41.89
2023-06-10T05:16:02.074Z,41.85
2023-06-10T05:17:03.045Z,41.93
2023-06-10T05:18:03.151Z,41.95
2023-06-10T05:19:05.609Z,41.84
2023-06-10T05:20:03.112Z,41.85
2023-06-10T05:21:03.112Z,41.84
2023-06-10T05:22:02.136Z,41.77
2023-06-10T05:23:02.094Z,41.84
2023-06-10T05:24:02.196Z,41.80
2023-06-10T05:25:02.115Z,41.77
2023-06-10T05:26:03.084Z,41.84
2023-06-10T05:27:03.117Z,41.80
2023-06-10T05:28:02.167Z,41.83
2023-06-10T05:29:03.215Z,41.83
2023-06-10T05:30:03.248Z,41.71
2023-06-10T05:31:02.301Z,41.71
2023-06-10T05:32:03.384Z,41.76
2023-06-10T05:33:03.409Z,41.71
2023-06-10T05:34:02.432Z,41.67
2023-06-10T05:35:02.452Z,41.66
2023-06-10T05:36:03.493Z,41.71
2023-06-10T05:37:03.580Z,41.74
2023-06-10T05:38:04.085Z,41.73
2023-06-10T05:39:03.624Z,41.72
2023-06-10T05:40:02.738Z,41.73
2023-06-10T05:41:02.724Z,41.70
2023-06-10T05:42:03.752Z,41.72
2023-06-10T05:43:03.806Z,41.80
2023-06-10T05:44:03.851Z,41.68
2023-06-10T05:45:02.965Z,41.61
2023-06-10T05:46:04.015Z,41.60
2023-06-10T05:47:04.001Z,41.58
2023-06-10T05:48:04.072Z,41.63
2023-06-10T05:49:04.082Z,41.63
2023-06-10T05:50:04.131Z,41.64
2023-06-10T05:51:03.205Z,41.69
2023-06-10T05:52:03.200Z,41.65
2023-06-10T05:53:04.247Z,41.71
2023-06-10T05:54:04.315Z,41.63
2023-06-10T05:55:04.347Z,41.68
2023-06-10T05:56:04.386Z,41.65
2023-06-10T05:57:03.467Z,41.62
2023-06-10T05:58:03.466Z,41.60
2023-06-10T05:59:04.547Z,41.62
2023-06-10T06:00:04.581Z,41.60
2023-06-10T06:01:04.683Z,41.61
2023-06-10T06:02:03.749Z,41.53
2023-06-10T06:03:04.766Z,41.57
2023-06-10T06:04:04.748Z,41.61
2023-06-10T06:05:04.936Z,41.57
2023-06-10T06:06:03.838Z,41.57
2023-06-10T06:07:03.892Z,41.61
2023-06-10T06:08:04.959Z,41.51
2023-06-10T06:09:04.995Z,41.55
2023-06-10T06:10:04.057Z,41.56
2023-06-10T06:11:05.077Z,41.46
2023-06-10T06:12:05.102Z,41.49
2023-06-10T06:13:05.163Z,41.48
2023-06-10T06:14:05.223Z,41.43
2023-06-10T06:15:05.305Z,41.42
2023-06-10T06:16:04.313Z,41.49
2023-06-10T06:17:05.401Z,41.43
2023-06-10T06:18:04.455Z,41.44
2023-06-10T06:19:05.414Z,41.47
2023-06-10T06:20:05.495Z,41.46
2023-06-10T06:21:05.533Z,41.38
2023-06-10T06:22:05.618Z,41.42
2023-06-10T06:23:05.636Z,41.41
2023-06-10T06:24:05.767Z,41.39
2023-06-10T06:25:04.726Z,41.41
2023-06-10T06:26:08.718Z,41.46
2023-06-10T06:27:05.736Z,41.44
2023-06-10T06:28:05.701Z,41.38
2023-06-10T06:29:04.690Z,41.41
2023-06-10T06:30:04.754Z,41.36
2023-06-10T06:31:05.722Z,41.38
2023-06-10T06:32:05.673Z,41.35
2023-06-10T06:33:04.844Z,41.38
2023-06-10T06:34:05.658Z,41.35
2023-06-10T06:35:05.633Z,41.35
2023-06-10T06:36:05.672Z,41.36
2023-06-10T06:37:05.640Z,41.36
2023-06-10T06:38:05.656Z,41.34
2023-06-10T06:39:04.647Z,41.32
2023-06-10T06:40:05.620Z,41.30
2023-06-10T06:41:04.647Z,41.27
2023-06-10T06:42:04.615Z,41.33
2023-06-10T06:43:05.611Z,41.25
2023-06-10T06:44:05.730Z,41.24
2023-06-10T06:45:05.594Z,41.23
2023-06-10T06:46:05.597Z,41.21
2023-06-10T06:47:05.575Z,41.26
2023-06-10T06:48:05.652Z,41.28
2023-06-10T06:49:05.563Z,41.28
2023-06-10T06:50:04.539Z,41.25
2023-06-10T06:51:05.602Z,41.22
2023-06-10T06:52:05.545Z,41.22
2023-06-10T06:53:05.524Z,41.28
2023-06-10T06:54:05.570Z,41.20
2023-06-10T06:55:05.625Z,41.20
2023-06-10T06:56:05.673Z,41.19
2023-06-10T06:57:05.666Z,41.22
2023-06-10T06:58:05.711Z,41.20
2023-06-10T06:59:05.798Z,41.20
2023-06-10T07:00:05.748Z,41.19
2023-06-10T07:01:05.797Z,41.16
2023-06-10T07:02:04.799Z,41.13
2023-06-10T07:03:05.911Z,41.12
2023-06-10T07:04:04.867Z,41.14
2023-06-10T07:05:05.968Z,41.11
2023-06-10T07:06:05.933Z,41.04
2023-06-10T07:07:04.952Z,41.13
2023-06-10T07:08:05.954Z,41.13
2023-06-10T07:09:05.015Z,41.07
2023-06-10T07:10:06.021Z,41.06
2023-06-10T07:11:05.051Z,41.09
2023-06-10T07:12:06.087Z,41.06
2023-06-10T07:13:06.083Z,41.06
2023-06-10T07:14:06.111Z,41.06
2023-06-10T07:15:06.226Z,41.05
2023-06-10T07:16:05.256Z,41.05
2023-06-10T07:17:06.285Z,41.08
2023-06-10T07:18:06.235Z,41.03
2023-06-10T07:19:06.587Z,41.03
2023-06-10T07:20:06.248Z,41.05
2023-06-10T07:21:05.278Z,41.03
2023-06-10T07:22:06.333Z,41.04
2023-06-10T07:23:06.330Z,41.03
2023-06-10T07:24:06.355Z,40.98
2023-06-10T07:25:06.492Z,40.99
2023-06-10T07:26:05.367Z,40.98
2023-06-10T07:27:06.378Z,40.99
2023-06-10T07:28:05.409Z,40.99
2023-06-10T07:29:06.401Z,40.97
2023-06-10T07:30:05.405Z,40.97
2023-06-10T07:31:06.453Z,40.93
2023-06-10T07:32:06.426Z,40.93
2023-06-10T07:33:06.465Z,40.93
2023-06-10T07:34:06.438Z,40.96
2023-06-10T07:35:05.453Z,40.99
2023-06-10T07:36:06.480Z,40.97
2023-06-10T07:37:06.679Z,40.96
2023-06-10T07:38:06.506Z,40.97
2023-06-10T07:39:06.502Z,40.99
2023-06-10T07:40:06.541Z,40.99
2023-06-10T07:41:06.559Z,41.01
2023-06-10T07:42:06.580Z,41.03
2023-06-10T07:43:06.604Z,40.96
2023-06-10T07:44:06.627Z,40.99
2023-06-10T07:45:06.862Z,40.98
2023-06-10T07:46:06.775Z,40.95
2023-06-10T07:47:06.632Z,40.94
2023-06-10T07:48:06.707Z,40.92
2023-06-10T07:49:06.651Z,40.93
2023-06-10T07:50:06.638Z,40.87
2023-06-10T07:51:06.677Z,40.89
2023-06-10T07:52:06.752Z,40.93
2023-06-10T07:53:05.706Z,40.90
2023-06-10T07:54:06.697Z,40.93
2023-06-10T07:55:06.795Z,40.88
2023-06-10T07:56:05.698Z,40.87
2023-06-10T07:57:05.864Z,40.88
2023-06-10T07:58:05.763Z,40.90
2023-06-10T07:59:05.781Z,40.85
2023-06-10T08:00:06.799Z,40.86
2023-06-10T08:01:05.781Z,40.84
2023-06-10T08:02:05.808Z,40.72
2023-06-10T08:03:06.893Z,40.80
2023-06-10T08:04:06.930Z,40.70
2023-06-10T08:05:06.924Z,40.68
2023-06-10T08:06:05.856Z,40.71
2023-06-10T08:07:05.869Z,40.76
2023-06-10T08:08:06.912Z,40.72
2023-06-10T08:09:06.909Z,40.72
2023-06-10T08:10:05.909Z,40.68
2023-06-10T08:11:05.935Z,40.72
2023-06-10T08:12:06.987Z,40.71
2023-06-10T08:13:06.978Z,40.68
2023-06-10T08:14:06.000Z,40.72
2023-06-10T08:15:07.157Z,40.70
2023-06-10T08:16:06.066Z,40.76
2023-06-10T08:17:07.100Z,40.64
2023-06-10T08:18:06.134Z,40.66
2023-06-10T08:19:07.114Z,40.68
2023-06-10T08:20:07.117Z,40.77
2023-06-10T08:21:06.166Z,40.66
2023-06-10T08:22:06.218Z,40.66
2023-06-10T08:23:07.281Z,40.66
2023-06-10T08:24:07.417Z,40.74
2023-06-10T08:25:07.675Z,40.73
2023-06-10T08:26:07.428Z,40.68
2023-06-10T08:27:07.446Z,40.67
2023-06-10T08:28:06.529Z,40.69
2023-06-10T08:29:07.525Z,40.68
2023-06-10T08:30:07.555Z,40.73
2023-06-10T08:31:07.615Z,40.73
2023-06-10T08:32:07.723Z,40.61
2023-06-10T08:33:07.703Z,40.76
2023-06-10T08:34:07.691Z,40.71
2023-06-10T08:35:07.957Z,40.72
2023-06-10T08:36:07.819Z,40.67
2023-06-10T08:37:07.827Z,40.73
2023-06-10T08:38:07.942Z,40.65
2023-06-10T08:39:07.925Z,40.64
2023-06-10T08:40:07.973Z,40.68
2023-06-10T08:41:08.075Z,40.69
2023-06-10T08:42:08.038Z,40.69
2023-06-10T08:43:08.175Z,40.65
2023-06-10T08:44:07.124Z,40.66
2023-06-10T08:45:07.305Z,40.61
2023-06-10T08:46:07.202Z,40.67
2023-06-10T08:47:08.185Z,40.67
2023-06-10T08:48:08.328Z,40.59
2023-06-10T08:49:08.420Z,40.67
2023-06-10T08:50:10.800Z,40.55
2023-06-10T08:51:08.298Z,40.57
2023-06-10T08:52:08.313Z,40.63
2023-06-10T08:53:08.266Z,40.66
2023-06-10T08:54:08.271Z,40.66
2023-06-10T08:55:08.511Z,40.62
2023-06-10T08:56:08.258Z,40.62
2023-06-10T08:57:08.347Z,40.67
2023-06-10T08:58:08.380Z,40.63
2023-06-10T08:59:07.364Z,40.70
2023-06-10T09:00:07.665Z,40.61
2023-06-10T09:01:07.498Z,40.61
2023-06-10T09:02:08.483Z,40.66
2023-06-10T09:03:08.530Z,40.62
2023-06-10T09:04:08.617Z,40.68
2023-06-10T09:05:07.552Z,40.61
2023-06-10T09:06:08.592Z,40.57
2023-06-10T09:07:07.652Z,40.63
2023-06-10T09:08:08.716Z,40.68
2023-06-10T09:09:08.717Z,40.54
2023-06-10T09:10:09.384Z,40.57
2023-06-10T09:11:08.821Z,40.57
2023-06-10T09:12:08.910Z,40.56
2023-06-10T09:13:08.913Z,40.61
2023-06-10T09:14:08.987Z,40.50
2023-06-10T09:15:09.028Z,40.53
2023-06-10T09:16:08.103Z,40.50
2023-06-10T09:17:09.087Z,40.65
2023-06-10T09:18:09.239Z,40.68
2023-06-10T09:19:09.327Z,40.62
2023-06-10T09:20:11.096Z,40.65
2023-06-10T09:21:09.266Z,40.57
2023-06-10T09:22:09.218Z,40.53
2023-06-10T09:23:08.224Z,40.51
2023-06-10T09:24:08.273Z,40.52
2023-06-10T09:25:08.257Z,40.61
2023-06-10T09:26:10.735Z,40.74
2023-06-10T09:27:09.521Z,40.63
2023-06-10T09:28:09.486Z,40.68
2023-06-10T09:29:09.520Z,40.57
2023-06-10T09:30:09.048Z,40.61
2023-06-10T09:31:08.798Z,40.62
2023-06-10T09:32:10.645Z,40.60
2023-06-10T09:33:08.772Z,40.71
2023-06-10T09:34:09.766Z,40.61
2023-06-10T09:35:09.796Z,40.68
2023-06-10T09:36:09.828Z,40.65
2023-06-10T09:37:09.869Z,40.63
2023-06-10T09:38:10.843Z,40.73
2023-06-10T09:39:08.987Z,40.71
2023-06-10T09:40:10.384Z,40.70
2023-06-10T09:41:10.085Z,40.78
2023-06-10T09:42:10.109Z,40.67
2023-06-10T09:43:10.099Z,40.66
2023-06-10T09:44:10.511Z,40.59
2023-06-10T09:45:10.249Z,40.57
2023-06-10T09:46:11.523Z,40.58
2023-06-10T09:47:10.241Z,40.69
2023-06-10T09:48:10.252Z,40.66
2023-06-10T09:49:10.224Z,40.67
2023-06-10T09:50:11.314Z,40.62
2023-06-10T09:51:10.311Z,40.68
2023-06-10T09:52:10.247Z,40.59
2023-06-10T09:53:10.236Z,40.72
2023-06-10T09:54:10.246Z,40.68
2023-06-10T09:55:10.254Z,40.78
2023-06-10T09:56:10.962Z,40.73
2023-06-10T09:57:10.393Z,40.66
2023-06-10T09:58:10.432Z,40.71
2023-06-10T09:59:10.428Z,40.66
2023-06-10T10:00:10.655Z,40.63
2023-06-10T10:01:10.603Z,40.73
2023-06-10T10:02:11.239Z,40.72
2023-06-10T10:03:10.653Z,40.61
2023-06-10T10:04:10.648Z,40.58
2023-06-10T10:05:11.108Z,40.60
2023-06-10T10:06:10.831Z,40.63
2023-06-10T10:07:10.785Z,40.69
2023-06-10T10:08:10.863Z,40.69
2023-06-10T10:09:10.916Z,40.68
2023-06-10T10:10:09.909Z,40.75
2023-06-10T10:11:11.007Z,40.82
2023-06-10T10:12:09.990Z,40.70
2023-06-10T10:13:11.031Z,40.76
2023-06-10T10:14:10.956Z,40.73
2023-06-10T10:15:11.366Z,40.73
2023-06-10T10:16:11.254Z,40.59
2023-06-10T10:17:11.320Z,40.60
2023-06-10T10:18:11.420Z,40.51
2023-06-10T10:19:10.315Z,40.55
2023-06-10T10:20:11.340Z,40.60
2023-06-10T10:21:11.380Z,40.57
2023-06-10T10:22:11.450Z,40.72
2023-06-10T10:23:11.524Z,40.72
2023-06-10T10:24:11.639Z,40.70
2023-06-10T10:25:11.862Z,40.78
2023-06-10T10:26:10.917Z,40.70
2023-06-10T10:27:11.709Z,40.79
2023-06-10T10:28:11.730Z,40.77
2023-06-10T10:29:11.720Z,40.77
2023-06-10T10:30:11.795Z,40.76
2023-06-10T10:31:11.947Z,40.78
2023-06-10T10:32:11.971Z,40.78
2023-06-10T10:33:11.985Z,40.75
2023-06-10T10:34:11.143Z,40.81
2023-06-10T10:35:11.240Z,40.84
2023-06-10T10:36:12.041Z,40.91
2023-06-10T10:37:12.136Z,40.99
2023-06-10T10:38:12.142Z,40.93
2023-06-10T10:39:11.156Z,40.93
2023-06-10T10:40:12.199Z,40.87
2023-06-10T10:41:12.229Z,40.89
2023-06-10T10:42:12.328Z,40.80
2023-06-10T10:43:12.354Z,40.86
2023-06-10T10:44:12.411Z,40.92
2023-06-10T10:45:12.703Z,40.95
2023-06-10T10:46:12.568Z,40.89
2023-06-10T10:47:12.465Z,40.94
2023-06-10T10:48:12.580Z,40.95
2023-06-10T10:49:12.615Z,40.89
2023-06-10T10:50:14.819Z,40.87
2023-06-10T10:51:11.630Z,40.97
2023-06-10T10:52:11.629Z,40.92
2023-06-10T10:53:12.588Z,40.87
2023-06-10T10:54:12.594Z,40.89
2023-06-10T10:55:11.658Z,40.79
2023-06-10T10:56:14.534Z,40.69
2023-06-10T10:57:11.621Z,40.78
2023-06-10T10:58:12.531Z,40.92
2023-06-10T10:59:12.536Z,40.95
2023-06-10T11:00:12.598Z,40.86
2023-06-10T11:01:12.520Z,40.95
2023-06-10T11:02:12.602Z,40.84
2023-06-10T11:03:12.679Z,40.79
2023-06-10T11:04:12.575Z,40.81
2023-06-10T11:05:12.057Z,40.93
2023-06-10T11:06:12.541Z,40.87
2023-06-10T11:07:12.470Z,40.91
2023-06-10T11:08:11.530Z,40.90
2023-06-10T11:09:11.472Z,40.93
2023-06-10T11:10:12.436Z,40.89
2023-06-10T11:11:12.436Z,40.95
2023-06-10T11:12:12.446Z,41.01
2023-06-10T11:13:11.419Z,41.07
2023-06-10T11:14:11.435Z,41.08
2023-06-10T11:15:11.685Z,41.12
2023-06-10T11:16:12.470Z,41.03
2023-06-10T11:17:11.406Z,40.97
2023-06-10T11:18:11.417Z,41.06
2023-06-10T11:19:12.389Z,40.96
2023-06-10T11:20:12.470Z,40.97
2023-06-10T11:21:12.395Z,41.07
2023-06-10T11:22:12.379Z,41.00
2023-06-10T11:23:12.375Z,41.12
2023-06-10T11:24:12.494Z,41.12
2023-06-10T11:25:12.485Z,41.12
2023-06-10T11:26:12.411Z,40.98
2023-06-10T11:27:12.422Z,41.04
2023-06-10T11:28:12.534Z,41.10
2023-06-10T11:29:12.541Z,41.20
2023-06-10T11:30:12.530Z,41.10
2023-06-10T11:31:12.592Z,41.05
2023-06-10T11:32:11.638Z,41.09
2023-06-10T11:33:12.744Z,41.01
2023-06-10T11:34:11.856Z,41.00
2023-06-10T11:35:12.937Z,41.02
2023-06-10T11:36:11.785Z,41.09
2023-06-10T11:37:12.800Z,41.08
2023-06-10T11:38:13.586Z,41.11
2023-06-10T11:39:12.815Z,41.17
2023-06-10T11:40:11.847Z,41.14
2023-06-10T11:41:12.824Z,41.05
2023-06-10T11:42:12.803Z,41.09
2023-06-10T11:43:11.809Z,41.11
2023-06-10T11:44:13.329Z,41.16
2023-06-10T11:45:12.059Z,41.16
2023-06-10T11:46:12.766Z,41.15
2023-06-10T11:47:12.762Z,41.17
2023-06-10T11:48:12.808Z,41.08
2023-06-10T11:49:11.777Z,41.09
2023-06-10T11:50:12.741Z,41.08
2023-06-10T11:51:11.763Z,41.08
2023-06-10T11:52:12.719Z,41.12
2023-06-10T11:53:12.733Z,41.08
2023-06-10T11:54:11.748Z,41.09
2023-06-10T11:55:13.063Z,41.11
2023-06-10T11:56:11.694Z,41.08
2023-06-10T11:57:11.701Z,41.01
2023-06-10T11:58:12.695Z,41.07
2023-06-10T11:59:12.672Z,40.98
2023-06-10T12:00:12.670Z,41.04
2023-06-10T12:01:13.289Z,40.95
2023-06-10T12:02:12.671Z,40.99
2023-06-10T12:03:12.866Z,41.00
2023-06-10T12:04:12.641Z,41.01
2023-06-10T12:05:11.939Z,40.96
2023-06-10T12:06:12.620Z,41.09
2023-06-10T12:07:12.618Z,40.98
2023-06-10T12:08:12.620Z,41.06
2023-06-10T12:09:23.484Z,41.03
2023-06-10T12:11:12.603Z,40.96
2023-06-10T12:12:11.585Z,40.96
2023-06-10T12:13:12.572Z,40.88
2023-06-10T12:14:11.572Z,40.92
2023-06-10T12:15:11.830Z,40.89
2023-06-10T12:16:12.562Z,40.96
2023-06-10T12:17:11.552Z,40.93
2023-06-10T12:18:11.554Z,41.00
2023-06-10T12:19:12.540Z,41.01
2023-06-10T12:20:12.505Z,40.96
2023-06-10T12:21:12.539Z,41.08
2023-06-10T12:22:11.509Z,41.01
2023-06-10T12:23:12.489Z,41.17
2023-06-10T12:24:12.907Z,41.04
2023-06-10T12:25:12.998Z,41.07
2023-06-10T12:26:12.483Z,41.06
2023-06-10T12:27:12.488Z,41.12
2023-06-10T12:28:12.527Z,41.19
2023-06-10T12:29:12.448Z,41.16
2023-06-10T12:30:12.771Z,41.25
2023-06-10T12:31:12.439Z,41.24
2023-06-10T12:32:11.555Z,41.22
2023-06-10T12:33:11.477Z,41.21
2023-06-10T12:34:12.440Z,41.13
2023-06-10T12:35:12.670Z,41.16
2023-06-10T12:36:12.441Z,41.20
2023-06-10T12:37:11.440Z,41.21
2023-06-10T12:38:11.478Z,41.18
2023-06-10T12:39:12.580Z,41.13
2023-06-10T12:40:11.524Z,41.15
2023-06-10T12:41:12.625Z,41.22
2023-06-10T12:42:12.687Z,41.20
2023-06-10T12:43:12.625Z,41.21
2023-06-10T12:44:12.664Z,41.16
2023-06-10T12:45:12.913Z,41.19
2023-06-10T12:46:12.852Z,41.19
2023-06-10T12:47:12.795Z,41.13
2023-06-10T12:48:12.917Z,41.19
2023-06-10T12:49:11.861Z,41.12
2023-06-10T12:50:13.092Z,41.12
2023-06-10T12:51:11.951Z,41.12
2023-06-10T12:52:12.988Z,41.15
2023-06-10T12:53:13.019Z,41.08
2023-06-10T12:54:13.090Z,41.19